sensor_id;sensor_type;location;lat;lon;timestamp;pressure;altitude;pressure_sealevel;temperature;humidity
13050;BME280;6591;51.446;5.404;2023-03-04T00:00:27;102334.38;;;13.02;40.37
13050;BME280;6591;51.446;5.404;2023-03-04T00:02:54;102331.72;;;13.02;40.02
13050;BME280;6591;51.446;5.404;2023-03-04T00:05:21;102325.50;;;13.02;40.06
13050;BME280;6591;51.446;5.404;2023-03-04T00:07:48;102334.44;;;13.01;39.81
13050;BME280;6591;51.446;5.404;2023-03-04T00:10:16;102338.88;;;13.00;40.02
13050;BME280;6591;51.446;5.404;2023-03-04T00:12:43;102329.13;;;12.99;39.79
13050;BME280;6591;51.446;5.404;2023-03-04T00:15:10;102330.84;;;13.02;40.10
13050;BME280;6591;51.446;5.404;2023-03-04T00:17:37;102330.84;;;13.02;40.01
13050;BME280;6591;51.446;5.404;2023-03-04T00:20:05;102329.97;;;13.01;39.95
13050;BME280;6591;51.446;5.404;2023-03-04T00:22:33;102326.44;;;13.01;39.96
13050;BME280;6591;51.446;5.404;2023-03-04T00:25:00;102316.63;;;13.01;39.85
13050;BME280;6591;51.446;5.404;2023-03-04T00:27:27;102316.63;;;13.01;40.09
13050;BME280;6591;51.446;5.404;2023-03-04T00:29:55;102327.31;;;13.01;40.20
13050;BME280;6591;51.446;5.404;2023-03-04T00:32:22;102316.63;;;13.01;40.12
13050;BME280;6591;51.446;5.404;2023-03-04T00:34:49;102316.63;;;13.01;40.26
13050;BME280;6591;51.446;5.404;2023-03-04T00:37:16;102314.00;;;13.00;39.93
13050;BME280;6591;51.446;5.404;2023-03-04T00:39:43;102312.25;;;12.99;40.65
13050;BME280;6591;51.446;5.404;2023-03-04T00:42:11;102322.94;;;12.99;40.30
13050;BME280;6591;51.446;5.404;2023-03-04T00:44:38;102316.78;;;12.97;40.15
13050;BME280;6591;51.446;5.404;2023-03-04T00:47:06;102321.25;;;12.96;40.41
13050;BME280;6591;51.446;5.404;2023-03-04T00:49:33;102318.63;;;12.95;40.49
13050;BME280;6591;51.446;5.404;2023-03-04T00:52:00;102317.78;;;12.93;40.14
13050;BME280;6591;51.446;5.404;2023-03-04T00:54:27;102315.19;;;12.91;40.29
13050;BME280;6591;51.446;5.404;2023-03-04T00:56:55;102315.22;;;12.90;40.88
13050;BME280;6591;51.446;5.404;2023-03-04T00:59:22;102317.00;;;12.89;40.84
13050;BME280;6591;51.446;5.404;2023-03-04T01:01:49;102318.00;;;12.87;41.08
13050;BME280;6591;51.446;5.404;2023-03-04T01:04:16;102310.91;;;12.86;40.46
13050;BME280;6591;51.446;5.404;2023-03-04T01:06:43;102318.91;;;12.86;40.89
13050;BME280;6591;51.446;5.404;2023-03-04T01:09:11;102319.72;;;12.88;40.64
13050;BME280;6591;51.446;5.404;2023-03-04T01:11:38;102325.94;;;12.88;40.84
13050;BME280;6591;51.446;5.404;2023-03-04T01:14:05;102326.72;;;12.92;40.84
13050;BME280;6591;51.446;5.404;2023-03-04T01:16:33;102331.09;;;12.93;40.75
13050;BME280;6591;51.446;5.404;2023-03-04T01:19:00;102329.28;;;12.95;41.05
13050;BME280;6591;51.446;5.404;2023-03-04T01:21:32;102325.69;;;12.96;40.42
13050;BME280;6591;51.446;5.404;2023-03-04T01:23:59;102321.22;;;12.98;40.65
13050;BME280;6591;51.446;5.404;2023-03-04T01:26:26;102326.53;;;12.98;40.86
13050;BME280;6591;51.446;5.404;2023-03-04T01:28:54;102326.53;;;12.98;40.84
13050;BME280;6591;51.446;5.404;2023-03-04T01:31:21;102322.16;;;12.95;40.79
13050;BME280;6591;51.446;5.404;2023-03-04T01:33:49;102323.06;;;12.94;41.27
13050;BME280;6591;51.446;5.404;2023-03-04T01:36:16;102320.44;;;12.93;41.20
13050;BME280;6591;51.446;5.404;2023-03-04T01:38:43;102303.59;;;12.92;41.33
13050;BME280;6591;51.446;5.404;2023-03-04T01:41:12;102307.22;;;12.90;40.97
13050;BME280;6591;51.446;5.404;2023-03-04T01:43:40;102306.34;;;12.89;40.81
13050;BME280;6591;51.446;5.404;2023-03-04T01:46:10;102309.06;;;12.88;41.00
13050;BME280;6591;51.446;5.404;2023-03-04T01:48:38;102304.59;;;12.88;41.56
13050;BME280;6591;51.446;5.404;2023-03-04T01:51:16;102297.56;;;12.87;41.18
13050;BME280;6591;51.446;5.404;2023-03-04T01:53:46;102300.16;;;12.89;41.34
13050;BME280;6591;51.446;5.404;2023-03-04T01:56:23;102293.91;;;12.90;41.41
13050;BME280;6591;51.446;5.404;2023-03-04T01:59:15;102290.47;;;12.86;41.25
13050;BME280;6591;51.446;5.404;2023-03-04T02:01:47;102282.34;;;12.89;40.97
13050;BME280;6591;51.446;5.404;2023-03-04T02:04:17;102283.28;;;12.88;41.10
13050;BME280;6591;51.446;5.404;2023-03-04T02:06:46;102278.00;;;12.87;41.24
13050;BME280;6591;51.446;5.404;2023-03-04T02:09:15;102284.22;;;12.87;41.02
13050;BME280;6591;51.446;5.404;2023-03-04T02:11:45;102276.22;;;12.87;41.10
13050;BME280;6591;51.446;5.404;2023-03-04T02:14:15;102265.44;;;12.90;41.56
13050;BME280;6591;51.446;5.404;2023-03-04T02:16:42;102271.53;;;12.94;41.07
13050;BME280;6591;51.446;5.404;2023-03-04T02:19:44;102262.81;;;12.89;40.89
13050;BME280;6591;51.446;5.404;2023-03-04T02:22:15;102262.81;;;12.89;41.61
13050;BME280;6591;51.446;5.404;2023-03-04T02:24:53;102268.28;;;12.86;41.23
13050;BME280;6591;51.446;5.404;2023-03-04T02:27:22;102262.94;;;12.86;41.29
13050;BME280;6591;51.446;5.404;2023-03-04T02:29:49;102266.47;;;12.86;41.50
13050;BME280;6591;51.446;5.404;2023-03-04T02:32:16;102266.47;;;12.86;41.58
13050;BME280;6591;51.446;5.404;2023-03-04T02:34:49;102265.63;;;12.84;41.59
13050;BME280;6591;51.446;5.404;2023-03-04T02:37:18;102264.72;;;12.85;41.19
13050;BME280;6591;51.446;5.404;2023-03-04T02:39:49;102263.88;;;12.83;41.47
13050;BME280;6591;51.446;5.404;2023-03-04T02:42:16;102265.69;;;12.83;41.83
13050;BME280;6591;51.446;5.404;2023-03-04T02:44:46;102259.50;;;12.82;41.72
13050;BME280;6591;51.446;5.404;2023-03-04T02:47:18;102255.09;;;12.81;41.57
13050;BME280;6591;51.446;5.404;2023-03-04T02:49:47;102251.56;;;12.81;41.70
13050;BME280;6591;51.446;5.404;2023-03-04T02:52:22;102250.69;;;12.80;41.54
13050;BME280;6591;51.446;5.404;2023-03-04T02:54:50;102246.22;;;12.81;41.85
13050;BME280;6591;51.446;5.404;2023-03-04T02:57:17;102247.03;;;12.83;41.47
13050;BME280;6591;51.446;5.404;2023-03-04T02:59:48;102249.75;;;12.81;41.61
13050;BME280;6591;51.446;5.404;2023-03-04T03:02:20;102248.78;;;12.84;41.60
13050;BME280;6591;51.446;5.404;2023-03-04T03:04:47;102247.03;;;12.83;41.81
13050;BME280;6591;51.446;5.404;2023-03-04T03:07:17;102244.34;;;12.83;41.62
13050;BME280;6591;51.446;5.404;2023-03-04T03:09:44;102239.91;;;12.83;41.84
13050;BME280;6591;51.446;5.404;2023-03-04T03:12:11;102236.44;;;12.81;41.74
13050;BME280;6591;51.446;5.404;2023-03-04T03:14:39;102236.47;;;12.80;41.84
13050;BME280;6591;51.446;5.404;2023-03-04T03:17:08;102240.94;;;12.79;41.92
13050;BME280;6591;51.446;5.404;2023-03-04T03:19:36;102242.72;;;12.79;42.22
13050;BME280;6591;51.446;5.404;2023-03-04T03:22:05;102246.38;;;12.76;42.20
13050;BME280;6591;51.446;5.404;2023-03-04T03:24:33;102241.91;;;12.77;41.71
13050;BME280;6591;51.446;5.404;2023-03-04T03:27:00;102239.25;;;12.77;41.79
13050;BME280;6591;51.446;5.404;2023-03-04T03:29:27;102236.47;;;12.80;42.00
13050;BME280;6591;51.446;5.404;2023-03-04T03:31:54;102228.47;;;12.80;42.17
13050;BME280;6591;51.446;5.404;2023-03-04T03:34:23;102230.22;;;12.81;41.99
13050;BME280;6591;51.446;5.404;2023-03-04T03:36:50;102231.09;;;12.81;41.75
13050;BME280;6591;51.446;5.404;2023-03-04T03:39:17;102225.81;;;12.80;41.58
13050;BME280;6591;51.446;5.404;2023-03-04T03:41:44;102222.22;;;12.81;42.19
13050;BME280;6591;51.446;5.404;2023-03-04T03:44:11;102225.81;;;12.80;41.98
13050;BME280;6591;51.446;5.404;2023-03-04T03:46:38;102232.00;;;12.80;42.13
13050;BME280;6591;51.446;5.404;2023-03-04T03:49:05;102231.13;;;12.80;41.78
13050;BME280;6591;51.446;5.404;2023-03-04T03:51:32;102220.47;;;12.80;41.89
13050;BME280;6591;51.446;5.404;2023-03-04T03:53:59;102224.03;;;12.80;42.10
13050;BME280;6591;51.446;5.404;2023-03-04T03:56:26;102226.56;;;12.83;42.03
13050;BME280;6591;51.446;5.404;2023-03-04T03:58:54;102223.97;;;12.82;41.39
13050;BME280;6591;51.446;5.404;2023-03-04T04:01:21;102216.84;;;12.82;41.97
13050;BME280;6591;51.446;5.404;2023-03-04T04:03:48;102228.44;;;12.81;41.90
13050;BME280;6591;51.446;5.404;2023-03-04T04:06:15;102231.13;;;12.80;41.70
13050;BME280;6591;51.446;5.404;2023-03-04T04:08:43;102224.06;;;12.79;42.48
13050;BME280;6591;51.446;5.404;2023-03-04T04:11:11;102236.50;;;12.78;42.40
13050;BME280;6591;51.446;5.404;2023-03-04T04:13:38;102234.72;;;12.79;42.44
13050;BME280;6591;51.446;5.404;2023-03-04T04:16:06;102226.69;;;12.80;41.88
13050;BME280;6591;51.446;5.404;2023-03-04T04:18:33;102232.06;;;12.79;42.52
13050;BME280;6591;51.446;5.404;2023-03-04T04:21:01;102219.72;;;12.76;41.85
13050;BME280;6591;51.446;5.404;2023-03-04T04:23:28;102226.75;;;12.77;42.05
13050;BME280;6591;51.446;5.404;2023-03-04T04:25:56;102225.09;;;12.74;42.02
13050;BME280;6591;51.446;5.404;2023-03-04T04:28:24;102225.09;;;12.74;42.40
13050;BME280;6591;51.446;5.404;2023-03-04T04:30:50;102230.47;;;12.73;42.69
13050;BME280;6591;51.446;5.404;2023-03-04T04:33:18;102228.72;;;12.72;42.19
13050;BME280;6591;51.446;5.404;2023-03-04T04:35:45;102231.44;;;12.70;42.37
13050;BME280;6591;51.446;5.404;2023-03-04T04:38:12;102235.03;;;12.69;42.59
13050;BME280;6591;51.446;5.404;2023-03-04T04:40:39;102230.56;;;12.70;41.94
13050;BME280;6591;51.446;5.404;2023-03-04T04:43:06;102236.78;;;12.70;42.43
13050;BME280;6591;51.446;5.404;2023-03-04T04:45:34;102241.25;;;12.68;41.97
13050;BME280;6591;51.446;5.404;2023-03-04T04:48:01;102236.81;;;12.69;42.00
13050;BME280;6591;51.446;5.404;2023-03-04T04:50:28;102240.34;;;12.69;41.99
13050;BME280;6591;51.446;5.404;2023-03-04T04:52:58;102241.19;;;12.71;42.45
13050;BME280;6591;51.446;5.404;2023-03-04T04:55:25;102244.66;;;12.73;42.12
13050;BME280;6591;51.446;5.404;2023-03-04T04:57:52;102242.81;;;12.76;41.76
13050;BME280;6591;51.446;5.404;2023-03-04T05:00:20;102243.63;;;12.78;42.31
13050;BME280;6591;51.446;5.404;2023-03-04T05:02:47;102247.13;;;12.80;42.00
13050;BME280;6591;51.446;5.404;2023-03-04T05:05:14;102243.63;;;12.78;41.55
13050;BME280;6591;51.446;5.404;2023-03-04T05:07:41;102243.63;;;12.78;41.89
13050;BME280;6591;51.446;5.404;2023-03-04T05:10:09;102248.09;;;12.77;42.11
13050;BME280;6591;51.446;5.404;2023-03-04T05:12:36;102248.09;;;12.77;41.65
13050;BME280;6591;51.446;5.404;2023-03-04T05:15:03;102244.56;;;12.77;41.92
13050;BME280;6591;51.446;5.404;2023-03-04T05:17:30;102233.09;;;12.74;42.04
13050;BME280;6591;51.446;5.404;2023-03-04T05:19:57;102238.41;;;12.74;42.25
13050;BME280;6591;51.446;5.404;2023-03-04T05:22:24;102240.16;;;12.76;41.74
13050;BME280;6591;51.446;5.404;2023-03-04T05:24:51;102235.72;;;12.76;41.86
13050;BME280;6591;51.446;5.404;2023-03-04T05:27:21;102230.38;;;12.76;41.57
13050;BME280;6591;51.446;5.404;2023-03-04T05:29:48;102232.09;;;12.77;41.98
13050;BME280;6591;51.446;5.404;2023-03-04T05:32:15;102243.69;;;12.76;41.83
13050;BME280;6591;51.446;5.404;2023-03-04T05:34:42;102235.75;;;12.74;41.78
13050;BME280;6591;51.446;5.404;2023-03-04T05:37:09;102236.63;;;12.75;41.55
13050;BME280;6591;51.446;5.404;2023-03-04T05:39:36;102239.31;;;12.73;41.88
13050;BME280;6591;51.446;5.404;2023-03-04T05:42:03;102243.75;;;12.74;42.03
13050;BME280;6591;51.446;5.404;2023-03-04T05:44:30;102246.41;;;12.74;41.68
13050;BME280;6591;51.446;5.404;2023-03-04T05:46:57;102246.41;;;12.74;41.75
13050;BME280;6591;51.446;5.404;2023-03-04T05:49:24;102243.75;;;12.74;41.85
13050;BME280;6591;51.446;5.404;2023-03-04T05:51:52;102242.88;;;12.74;42.02
13050;BME280;6591;51.446;5.404;2023-03-04T05:54:18;102244.66;;;12.73;42.00
13050;BME280;6591;51.446;5.404;2023-03-04T05:56:45;102253.53;;;12.74;41.49
13050;BME280;6591;51.446;5.404;2023-03-04T05:59:12;102241.13;;;12.73;41.50
13050;BME280;6591;51.446;5.404;2023-03-04T06:01:39;102250.91;;;12.72;42.17
13050;BME280;6591;51.446;5.404;2023-03-04T06:04:06;102251.00;;;12.69;41.63
13050;BME280;6591;51.446;5.404;2023-03-04T06:06:34;102241.25;;;12.68;41.98
13050;BME280;6591;51.446;5.404;2023-03-04T06:09:01;102249.25;;;12.68;42.18
13050;BME280;6591;51.446;5.404;2023-03-04T06:11:28;102246.59;;;12.68;41.73
13050;BME280;6591;51.446;5.404;2023-03-04T06:13:55;102245.69;;;12.69;42.39
13050;BME280;6591;51.446;5.404;2023-03-04T06:16:22;102244.84;;;12.67;41.87
13050;BME280;6591;51.446;5.404;2023-03-04T06:18:49;102251.00;;;12.69;42.22
13050;BME280;6591;51.446;5.404;2023-03-04T06:21:16;102257.22;;;12.70;42.29
13050;BME280;6591;51.446;5.404;2023-03-04T06:23:43;102253.69;;;12.69;41.73
13050;BME280;6591;51.446;5.404;2023-03-04T06:26:11;102253.69;;;12.69;42.40
13050;BME280;6591;51.446;5.404;2023-03-04T06:28:42;102259.88;;;12.70;41.98
13050;BME280;6591;51.446;5.404;2023-03-04T06:31:10;102262.50;;;12.71;41.98
13050;BME280;6591;51.446;5.404;2023-03-04T06:33:37;102262.44;;;12.73;42.32
13050;BME280;6591;51.446;5.404;2023-03-04T06:36:04;102266.00;;;12.72;42.22
13050;BME280;6591;51.446;5.404;2023-03-04T06:38:31;102262.50;;;12.71;42.04
13050;BME280;6591;51.446;5.404;2023-03-04T06:41:09;102267.09;;;12.66;42.33
13050;BME280;6591;51.446;5.404;2023-03-04T06:43:37;102256.44;;;12.66;42.56
13050;BME280;6591;51.446;5.404;2023-03-04T06:46:07;102272.44;;;12.66;42.68
13050;BME280;6591;51.446;5.404;2023-03-04T06:48:35;102271.56;;;12.66;42.81
13050;BME280;6591;51.446;5.404;2023-03-04T06:51:07;102270.84;;;12.61;42.33
13050;BME280;6591;51.446;5.404;2023-03-04T06:53:35;102267.28;;;12.60;42.71
13050;BME280;6591;51.446;5.404;2023-03-04T06:56:03;102285.97;;;12.59;42.90
13050;BME280;6591;51.446;5.404;2023-03-04T06:58:31;102287.78;;;12.58;42.93
13050;BME280;6591;51.446;5.404;2023-03-04T07:03:38;102286.94;;;12.56;43.14
13050;BME280;6591;51.446;5.404;2023-03-04T07:06:06;102286.03;;;12.57;43.18
13050;BME280;6591;51.446;5.404;2023-03-04T07:08:34;102290.44;;;12.58;43.29
13050;BME280;6591;51.446;5.404;2023-03-04T07:11:01;102287.78;;;12.58;43.28
13050;BME280;6591;51.446;5.404;2023-03-04T07:13:29;102290.31;;;12.61;43.20
13050;BME280;6591;51.446;5.404;2023-03-04T07:15:59;102286.69;;;12.65;43.39
13050;BME280;6591;51.446;5.404;2023-03-04T07:18:26;102286.59;;;12.67;43.20
13050;BME280;6591;51.446;5.404;2023-03-04T07:20:53;102288.31;;;12.69;42.98
13050;BME280;6591;51.446;5.404;2023-03-04T07:23:20;102288.22;;;12.72;42.97
13050;BME280;6591;51.446;5.404;2023-03-04T07:25:49;102290.84;;;12.74;42.91
13050;BME280;6591;51.446;5.404;2023-03-04T07:28:17;102289.94;;;12.75;42.79
13050;BME280;6591;51.446;5.404;2023-03-04T07:30:44;102296.94;;;12.78;43.51
13050;BME280;6591;51.446;5.404;2023-03-04T07:33:13;102296.03;;;12.79;42.96
13050;BME280;6591;51.446;5.404;2023-03-04T07:35:40;102292.41;;;12.81;43.23
13050;BME280;6591;51.446;5.404;2023-03-04T07:38:08;102303.00;;;12.83;43.32
13050;BME280;6591;51.446;5.404;2023-03-04T07:40:36;102310.06;;;12.84;42.97
13050;BME280;6591;51.446;5.404;2023-03-04T07:43:04;102318.91;;;12.86;43.41
13050;BME280;6591;51.446;5.404;2023-03-04T07:45:31;102302.00;;;12.87;43.62
13050;BME280;6591;51.446;5.404;2023-03-04T07:47:59;102312.56;;;12.90;43.46
13050;BME280;6591;51.446;5.404;2023-03-04T07:50:26;102317.78;;;12.93;43.50
13050;BME280;6591;51.446;5.404;2023-03-04T07:52:53;102315.00;;;12.97;43.87
13050;BME280;6591;51.446;5.404;2023-03-04T07:55:20;102313.94;;;13.03;43.42
13050;BME280;6591;51.446;5.404;2023-03-04T07:57:48;102323.56;;;13.07;43.03
13050;BME280;6591;51.446;5.404;2023-03-04T08:00:16;102323.47;;;13.11;43.23
13050;BME280;6591;51.446;5.404;2023-03-04T08:02:43;102319.72;;;13.17;43.00
13050;BME280;6591;51.446;5.404;2023-03-04T08:05:10;102315.19;;;13.19;43.37
13050;BME280;6591;51.446;5.404;2023-03-04T08:07:37;102322.28;;;13.20;43.72
13050;BME280;6591;51.446;5.404;2023-03-04T08:10:06;102323.06;;;13.24;43.66
13050;BME280;6591;51.446;5.404;2023-03-04T08:12:35;102325.59;;;13.28;43.08
13050;BME280;6591;51.446;5.404;2023-03-04T08:15:03;102318.47;;;13.29;43.51
13050;BME280;6591;51.446;5.404;2023-03-04T08:17:30;102317.50;;;13.30;43.45
13050;BME280;6591;51.446;5.404;2023-03-04T08:19:57;102320.19;;;13.30;43.60
13050;BME280;6591;51.446;5.404;2023-03-04T08:22:24;102325.47;;;13.31;43.67
13050;BME280;6591;51.446;5.404;2023-03-04T08:24:51;102321.84;;;13.34;43.28
13050;BME280;6591;51.446;5.404;2023-03-04T08:27:19;102323.53;;;13.36;43.27
13050;BME280;6591;51.446;5.404;2023-03-04T08:29:46;102319.91;;;13.39;43.41
13050;BME280;6591;51.446;5.404;2023-03-04T08:32:13;102321.53;;;13.43;44.11
13050;BME280;6591;51.446;5.404;2023-03-04T08:34:40;102329.41;;;13.46;43.33
13050;BME280;6591;51.446;5.404;2023-03-04T08:37:08;102331.94;;;13.50;43.73
13050;BME280;6591;51.446;5.404;2023-03-04T08:39:35;102324.59;;;13.57;43.63
13050;BME280;6591;51.446;5.404;2023-03-04T08:42:03;102331.53;;;13.63;43.39
13050;BME280;6591;51.446;5.404;2023-03-04T08:44:30;102326.91;;;13.68;44.17
13050;BME280;6591;51.446;5.404;2023-03-04T08:46:58;102328.63;;;13.70;43.82
13050;BME280;6591;51.446;5.404;2023-03-04T08:49:25;102325.78;;;13.75;43.60
13050;BME280;6591;51.446;5.404;2023-03-04T08:51:52;102332.59;;;13.83;43.66
13050;BME280;6591;51.446;5.404;2023-03-04T08:54:19;102324.41;;;13.88;43.83
13050;BME280;6591;51.446;5.404;2023-03-04T08:56:46;102327.75;;;13.94;43.93
13050;BME280;6591;51.446;5.404;2023-03-04T08:59:13;102325.75;;;14.01;43.89
13050;BME280;6591;51.446;5.404;2023-03-04T09:01:40;102319.22;;;14.08;43.60
13050;BME280;6591;51.446;5.404;2023-03-04T09:04:07;102315.44;;;14.15;43.67
13050;BME280;6591;51.446;5.404;2023-03-04T09:06:35;102322.28;;;14.22;43.66
13050;BME280;6591;51.446;5.404;2023-03-04T09:09:03;102318.44;;;14.29;43.65
13050;BME280;6591;51.446;5.404;2023-03-04T09:11:30;102310.19;;;14.37;43.33
13050;BME280;6591;51.446;5.404;2023-03-04T09:13:57;102316.97;;;14.46;43.74
13050;BME280;6591;51.446;5.404;2023-03-04T09:16:25;102313.84;;;14.58;43.50
13050;BME280;6591;51.446;5.404;2023-03-04T09:18:53;102308.16;;;14.67;43.35
13050;BME280;6591;51.446;5.404;2023-03-04T09:21:19;102304.97;;;14.80;43.31
13050;BME280;6591;51.446;5.404;2023-03-04T09:23:47;102300.84;;;14.94;43.20
13050;BME280;6591;51.446;5.404;2023-03-04T09:26:23;102304.84;;;15.05;43.40
13050;BME280;6591;51.446;5.404;2023-03-04T09:28:57;102299.09;;;15.14;42.57
13050;BME280;6591;51.446;5.404;2023-03-04T09:31:26;102294.38;;;15.21;42.61
13050;BME280;6591;51.446;5.404;2023-03-04T09:33:55;102298.66;;;15.25;42.59
13050;BME280;6591;51.446;5.404;2023-03-04T09:36:23;102298.38;;;15.33;42.44
13050;BME280;6591;51.446;5.404;2023-03-04T09:38:51;102298.97;;;15.39;42.53
13050;BME280;6591;51.446;5.404;2023-03-04T09:41:23;102298.59;;;15.48;42.63
13050;BME280;6591;51.446;5.404;2023-03-04T09:43:53;102299.09;;;15.58;42.41
13050;BME280;6591;51.446;5.404;2023-03-04T09:46:32;102296.94;;;15.66;42.18
13050;BME280;6591;51.446;5.404;2023-03-04T09:49:00;102297.38;;;15.77;42.70
13050;BME280;6591;51.446;5.404;2023-03-04T10:00:25;102293.06;;;15.93;42.03
13050;BME280;6591;51.446;5.404;2023-03-04T10:03:17;102300.69;;;16.02;41.98
13050;BME280;6591;51.446;5.404;2023-03-04T10:06:03;102289.88;;;16.05;41.80
13050;BME280;6591;51.446;5.404;2023-03-04T10:08:51;102284.13;;;16.13;41.79
13050;BME280;6591;51.446;5.404;2023-03-04T10:16:55;102283.66;;;16.24;41.01
13050;BME280;6591;51.446;5.404;2023-03-04T10:19:56;102292.78;;;16.20;40.83
13050;BME280;6591;51.446;5.404;2023-03-04T10:22:47;102289.78;;;16.27;41.29
13050;BME280;6591;51.446;5.404;2023-03-04T10:25:25;102288.75;;;16.30;40.94
13050;BME280;6591;51.446;5.404;2023-03-04T10:27:58;102293.09;;;16.32;41.00
13050;BME280;6591;51.446;5.404;2023-03-04T10:30:36;102279.69;;;16.32;40.91
13050;BME280;6591;51.446;5.404;2023-03-04T10:33:19;102277.22;;;16.28;40.81
13050;BME280;6591;51.446;5.404;2023-03-04T10:36:02;102278.16;;;16.27;40.59
13050;BME280;6591;51.446;5.404;2023-03-04T10:38:33;102276.16;;;16.32;40.79
13050;BME280;6591;51.446;5.404;2023-03-04T10:41:14;102271.66;;;16.32;40.74
13050;BME280;6591;51.446;5.404;2023-03-04T10:43:42;102272.22;;;16.39;40.57
13050;BME280;6591;51.446;5.404;2023-03-04T10:46:14;102271.88;;;16.46;40.43
13050;BME280;6591;51.446;5.404;2023-03-04T10:48:42;102266.00;;;16.57;40.41
13050;BME280;6591;51.446;5.404;2023-03-04T10:51:23;102268.34;;;16.65;40.24
13050;BME280;6591;51.446;5.404;2023-03-04T10:54:07;102265.59;;;16.66;39.95
13050;BME280;6591;51.446;5.404;2023-03-04T10:56:41;102261.97;;;16.67;39.40
13050;BME280;6591;51.446;5.404;2023-03-04T10:59:42;102263.38;;;16.56;39.47
13050;BME280;6591;51.446;5.404;2023-03-04T11:02:33;102256.59;;;16.48;39.75
13050;BME280;6591;51.446;5.404;2023-03-04T11:05:20;102262.38;;;16.39;39.80
13050;BME280;6591;51.446;5.404;2023-03-04T11:07:54;102260.06;;;16.32;39.70
13050;BME280;6591;51.446;5.404;2023-03-04T11:10:30;102262.31;;;16.22;39.75
13050;BME280;6591;51.446;5.404;2023-03-04T11:16:03;102261.47;;;16.01;39.96
13050;BME280;6591;51.446;5.404;2023-03-04T11:18:47;102257.31;;;15.94;40.36
13050;BME280;6591;51.446;5.404;2023-03-04T11:21:24;102251.16;;;15.92;40.31
13050;BME280;6591;51.446;5.404;2023-03-04T11:23:56;102252.88;;;15.93;40.32
13050;BME280;6591;51.446;5.404;2023-03-04T11:26:46;102248.47;;;15.92;40.31
13050;BME280;6591;51.446;5.404;2023-03-04T11:29:21;102252.16;;;15.90;40.33
13050;BME280;6591;51.446;5.404;2023-03-04T11:32:10;102251.56;;;15.83;40.44
13050;BME280;6591;51.446;5.404;2023-03-04T11:35:01;102246.47;;;15.77;40.72
13050;BME280;6591;51.446;5.404;2023-03-04T11:37:39;102251.97;;;15.74;40.66
13050;BME280;6591;51.446;5.404;2023-03-04T11:40:42;102246.88;;;15.68;41.15
13050;BME280;6591;51.446;5.404;2023-03-04T11:43:37;102240.06;;;15.61;41.30
13050;BME280;6591;51.446;5.404;2023-03-04T11:52:35;102228.81;;;15.53;41.92
13050;BME280;6591;51.446;5.404;2023-03-04T12:01:08;102222.19;;;15.61;41.94
13050;BME280;6591;51.446;5.404;2023-03-04T12:04:02;102218.50;;;15.64;41.89
13050;BME280;6591;51.446;5.404;2023-03-04T12:10:11;102213.81;;;15.69;42.15
13050;BME280;6591;51.446;5.404;2023-03-04T12:21:16;102184.72;;;16.00;41.99
13050;BME280;6591;51.446;5.404;2023-03-04T12:31:03;102170.31;;;16.22;42.21
13050;BME280;6591;51.446;5.404;2023-03-04T12:39:33;102156.72;;;16.43;42.03
13050;BME280;6591;51.446;5.404;2023-03-04T12:42:39;102149.34;;;16.48;42.25
13050;BME280;6591;51.446;5.404;2023-03-04T12:45:42;102147.06;;;16.58;42.16
13050;BME280;6591;51.446;5.404;2023-03-04T12:48:24;102145.72;;;16.68;42.13
13050;BME280;6591;51.446;5.404;2023-03-04T12:53:39;102146.09;;;16.78;41.54
13050;BME280;6591;51.446;5.404;2023-03-04T12:59:16;102130.88;;;16.78;41.30
13050;BME280;6591;51.446;5.404;2023-03-04T13:10:15;102120.84;;;16.82;41.22
13050;BME280;6591;51.446;5.404;2023-03-04T13:12:54;102124.72;;;16.76;41.06
13050;BME280;6591;51.446;5.404;2023-03-04T13:21:20;102111.53;;;16.36;41.14
13050;BME280;6591;51.446;5.404;2023-03-04T13:23:50;102113.41;;;16.34;41.39
13050;BME280;6591;51.446;5.404;2023-03-04T13:26:33;102112.28;;;16.21;41.48
13050;BME280;6591;51.446;5.404;2023-03-04T13:32:09;102112.09;;;16.06;41.51
13050;BME280;6591;51.446;5.404;2023-03-04T13:34:51;102109.69;;;16.00;41.83
13050;BME280;6591;51.446;5.404;2023-03-04T13:37:36;102106.34;;;15.95;41.96
13050;BME280;6591;51.446;5.404;2023-03-04T13:40:22;102104.97;;;15.87;41.98
13050;BME280;6591;51.446;5.404;2023-03-04T13:42:50;102107.09;;;15.80;42.04
13050;BME280;6591;51.446;5.404;2023-03-04T13:45:33;102115.78;;;15.65;42.36
13050;BME280;6591;51.446;5.404;2023-03-04T13:48:03;102109.13;;;15.55;42.59
13050;BME280;6591;51.446;5.404;2023-03-04T13:50:45;102108.75;;;15.44;42.75
13050;BME280;6591;51.446;5.404;2023-03-04T13:53:40;102102.03;;;15.34;43.14
13050;BME280;6591;51.446;5.404;2023-03-04T13:56:20;102106.66;;;15.30;43.13
13050;BME280;6591;51.446;5.404;2023-03-04T13:58:52;102104.03;;;15.28;43.11
13050;BME280;6591;51.446;5.404;2023-03-04T14:01:29;102095.09;;;15.30;43.20
13050;BME280;6591;51.446;5.404;2023-03-04T14:04:17;102100.59;;;15.26;43.36
13050;BME280;6591;51.446;5.404;2023-03-04T14:06:50;102090.81;;;15.25;43.34
13050;BME280;6591;51.446;5.404;2023-03-04T14:09:31;102091.91;;;15.21;43.49
13050;BME280;6591;51.446;5.404;2023-03-04T14:12:13;102088.56;;;15.16;43.56
13050;BME280;6591;51.446;5.404;2023-03-04T14:14:52;102091.28;;;15.15;43.57
13050;BME280;6591;51.446;5.404;2023-03-04T14:17:39;102088.81;;;15.10;43.86
13050;BME280;6591;51.446;5.404;2023-03-04T14:20:38;102092.69;;;15.03;44.09
13050;BME280;6591;51.446;5.404;2023-03-04T14:23:31;102085.94;;;14.95;44.06
13050;BME280;6591;51.446;5.404;2023-03-04T14:26:14;102085.34;;;14.88;44.12
13050;BME280;6591;51.446;5.404;2023-03-04T14:28:49;102081.78;;;14.88;43.95
13050;BME280;6591;51.446;5.404;2023-03-04T14:31:20;102084.63;;;14.84;44.46
13050;BME280;6591;51.446;5.404;2023-03-04T14:33:53;102082.88;;;14.83;44.78
13050;BME280;6591;51.446;5.404;2023-03-04T14:36:32;102077.56;;;14.82;45.30
13050;BME280;6591;51.446;5.404;2023-03-04T14:39:04;102073.00;;;14.86;45.14
13050;BME280;6591;51.446;5.404;2023-03-04T14:41:38;102077.19;;;14.91;45.32